Leipsic, Delaware
Current Conditions -  °F | °C
As of 3:58 PM on Sunday 23 Nov 2014 (Local Time) from KDOV Reporting Station
Clear Clear  
Wind Chill: 46°   Ceiling: Unl
Heat Index: 48°   Visibility: 10mi
Dew Point: 44°   Wind: 6mph
Humidity: 86%   Direction: 90°E
Pressure: 30.11"   Gusts: NA
Location:  39.1624°N, 75.5199°W
Report Text: KDOV 232058Z AUTO 09005KT 10SM CLR 09/07 A3011 RMK AO2 SLP200 T00900068 56015
Loading
Personal Weather Stations






























Interactive Weather Map New forecast layout! Learn more

10-Day Weather Forecast

Advertisements
Track Severe Weather on mobile